Time;durP1;ratioP1;P1;durP2;ratioP2;P2;SDS_P1;SDS_P2;PMS_P1;PMS_P2;Temp;Humidity;BMP_temperature;BMP_pressure;BME280_temperature;BME280_humidity;BME280_pressure;Samples;Min_cycle;Max_cycle;Signal;HPM_P1;HPM_P2
2022/11/13 00:02:20;;;;;;;26.77;22.23;;;11.40;99.90;;;;;;5092666;28;20413;-46
2022/11/13 00:05:06;;;;;;;24.83;21.40;;;11.60;99.90;;;;;;5092630;28;20934;-44
2022/11/13 00:07:52;;;;;;;26.40;21.57;;;11.90;99.90;;;;;;5092385;28;20515;-44
2022/11/13 00:10:37;;;;;;;22.37;19.90;;;11.50;99.90;;;;;;5092109;28;20475;-43
2022/11/13 00:13:24;;;;;;;21.30;18.40;;;11.60;99.90;;;;;;5092230;28;20552;-46
2022/11/13 00:16:11;;;;;;;21.60;19.40;;;12.00;99.90;;;;;;5092413;28;20422;-46
2022/11/13 00:18:57;;;;;;;23.73;20.37;;;11.60;99.90;;;;;;5092080;28;20541;-44
2022/11/13 00:21:42;;;;;;;21.20;17.53;;;11.50;99.90;;;;;;5092294;28;20861;-46
2022/11/13 00:24:28;;;;;;;20.03;16.37;;;11.90;99.90;;;;;;5092021;28;20877;-46
2022/11/13 00:27:13;;;;;;;22.73;18.73;;;11.60;99.90;;;;;;5091706;28;20836;-47
2022/11/13 00:30:00;;;;;;;25.87;19.20;;;11.50;99.90;;;;;;5091616;28;20500;-44
2022/11/13 00:32:45;;;;;;;23.10;18.47;;;12.10;99.90;;;;;;5092006;28;20430;-45
2022/11/13 00:35:32;;;;;;;24.93;18.73;;;12.10;99.90;;;;;;5091971;28;20433;-44
2022/11/13 00:38:17;;;;;;;24.13;16.87;;;11.60;99.90;;;;;;5091799;28;20428;-45
2022/11/13 00:41:03;;;;;;;24.27;18.83;;;11.70;99.90;;;;;;5091444;28;20542;-45
2022/11/13 00:43:49;;;;;;;62.40;20.13;;;11.50;99.90;;;;;;5095093;28;20427;-45
2022/11/13 00:46:35;;;;;;;27.47;17.30;;;11.70;99.90;;;;;;5095658;28;20558;-46
2022/11/13 00:49:20;;;;;;;21.53;17.47;;;12.10;99.90;;;;;;5095727;28;20423;-45
2022/11/13 00:52:06;;;;;;;22.83;17.90;;;11.60;99.90;;;;;;5096379;28;20457;-44
2022/11/13 00:54:51;;;;;;;21.70;18.07;;;12.10;99.90;;;;;;5095615;28;20436;-46
2022/11/13 00:57:37;;;;;;;23.10;17.20;;;11.80;99.90;;;;;;5095903;28;20401;-45
2022/11/13 01:00:22;;;;;;;20.03;17.47;;;11.60;99.90;;;;;;5094957;28;20534;-45
2022/11/13 01:03:09;;;;;;;20.77;16.60;;;12.20;99.90;;;;;;5095196;28;20436;-45
2022/11/13 01:05:56;;;;;;;21.63;16.57;;;11.70;99.90;;;;;;5095761;28;20430;-46
2022/11/13 01:08:41;;;;;;;22.47;18.47;;;12.10;99.90;;;;;;5095972;28;20414;-45
2022/11/13 01:11:29;;;;;;;21.27;16.17;;;12.30;99.90;;;;;;5101615;28;20802;-47
2022/11/13 01:14:14;;;;;;;24.83;16.90;;;12.20;99.90;;;;;;5096888;28;20428;-45
2022/11/13 01:17:00;;;;;;;28.40;18.13;;;11.20;99.90;;;;;;5095200;28;20467;-45
2022/11/13 01:19:47;;;;;;;25.83;16.33;;;11.80;99.90;;;;;;5095474;28;20423;-45
2022/11/13 01:22:32;;;;;;;19.70;17.00;;;12.10;99.90;;;;;;5096393;28;20432;-43
2022/11/13 01:25:18;;;;;;;18.63;15.33;;;12.00;99.90;;;;;;5096855;28;20429;-46
2022/11/13 01:28:04;;;;;;;17.80;15.90;;;11.60;99.90;;;;;;5096784;28;20494;-45
2022/11/13 01:30:49;;;;;;;18.90;16.27;;;11.70;99.90;;;;;;5096386;28;20450;-46
2022/11/13 01:33:35;;;;;;;18.53;15.87;;;11.80;99.90;;;;;;5096739;28;20498;-46
2022/11/13 01:36:23;;;;;;;19.13;16.67;;;11.80;99.90;;;;;;5097482;28;20793;-45
2022/11/13 01:39:10;;;;;;;20.07;15.50;;;11.80;99.90;;;;;;5097449;28;20570;-45
2022/11/13 01:41:55;;;;;;;18.60;16.70;;;12.30;99.90;;;;;;5096789;28;20467;-46
2022/11/13 01:44:49;;;;;;;18.03;15.97;;;11.40;99.90;;;;;;5097333;28;20449;-45
2022/11/13 01:47:35;;;;;;;17.10;15.13;;;12.30;99.90;;;;;;5096861;28;20465;-46
2022/11/13 01:50:20;;;;;;;20.10;16.60;;;11.60;99.90;;;;;;5096779;28;20453;-45
2022/11/13 01:53:08;;;;;;;19.27;17.10;;;12.30;99.90;;;;;;5096975;28;20425;-46
2022/11/13 01:55:53;;;;;;;20.80;16.33;;;11.60;99.90;;;;;;5094613;28;20427;-47
2022/11/13 01:58:40;;;;;;;18.10;16.23;;;11.90;99.90;;;;;;5094481;28;20393;-44
2022/11/13 02:01:25;;;;;;;20.63;17.23;;;11.70;99.90;;;;;;5094650;28;20446;-46
2022/11/13 02:04:11;;;;;;;19.03;15.83;;;11.60;99.90;;;;;;5094768;28;20651;-45
2022/11/13 02:06:59;;;;;;;19.60;16.03;;;12.30;99.90;;;;;;5094487;28;20552;-46
2022/11/13 02:09:48;;;;;;;20.23;17.83;;;11.80;99.90;;;;;;5094114;28;20563;-45
2022/11/13 02:12:39;;;;;;;20.10;17.77;;;11.80;99.90;;;;;;5094571;28;20437;-44
2022/11/13 02:15:26;;;;;;;19.10;17.10;;;12.00;99.90;;;;;;5095134;28;20422;-45
2022/11/13 02:18:12;;;;;;;20.07;16.83;;;11.90;99.90;;;;;;5095535;28;20721;-44
2022/11/13 02:21:05;;;;;;;19.50;17.60;;;11.90;99.90;;;;;;5094801;28;20446;-46
2022/11/13 02:23:56;;;;;;;20.97;18.67;;;11.80;99.90;;;;;;5094177;28;20430;-46
2022/11/13 02:26:44;;;;;;;23.00;18.17;;;11.90;99.90;;;;;;5093788;28;20810;-44
2022/11/13 02:29:29;;;;;;;21.17;18.97;;;11.80;99.90;;;;;;5093791;28;20434;-44
2022/11/13 02:32:15;;;;;;;22.93;19.03;;;11.80;99.90;;;;;;5094199;28;20791;-45
2022/11/13 02:35:00;;;;;;;24.43;20.23;;;11.70;99.90;;;;;;5094124;28;20429;-45
2022/11/13 02:37:46;;;;;;;21.43;19.13;;;11.40;99.90;;;;;;5094125;28;21067;-45
2022/11/13 02:40:32;;;;;;;21.90;19.67;;;11.90;99.90;;;;;;5092937;28;20466;-45
2022/11/13 02:43:19;;;;;;;22.70;20.30;;;12.10;99.90;;;;;;5093415;28;20433;-45
2022/11/13 02:46:05;;;;;;;24.80;22.17;;;11.60;99.90;;;;;;5093712;28;20518;-46
2022/11/13 02:48:50;;;;;;;23.73;21.03;;;11.70;99.90;;;;;;5093063;28;20460;-45
2022/11/13 02:51:35;;;;;;;22.50;20.20;;;12.00;99.90;;;;;;5093736;28;20527;-45
2022/11/13 02:54:21;;;;;;;22.23;20.00;;;11.80;99.90;;;;;;5093968;28;20802;-45
2022/11/13 02:57:06;;;;;;;23.93;21.40;;;11.70;99.90;;;;;;5094574;28;20418;-44
2022/11/13 02:59:53;;;;;;;23.70;20.80;;;11.90;99.90;;;;;;5094046;28;20517;-45
2022/11/13 03:02:39;;;;;;;23.03;20.70;;;12.30;99.90;;;;;;5093575;28;20402;-44
2022/11/13 03:05:24;;;;;;;23.23;20.10;;;12.10;99.90;;;;;;5093085;28;20475;-44
2022/11/13 03:08:09;;;;;;;24.20;20.80;;;12.40;99.90;;;;;;5092969;28;20961;-45
2022/11/13 03:10:55;;;;;;;23.43;20.30;;;11.90;99.90;;;;;;5093270;28;20466;-47
2022/11/13 03:13:40;;;;;;;23.53;19.47;;;11.80;99.90;;;;;;5093264;28;20507;-45
2022/11/13 03:16:27;;;;;;;25.77;18.73;;;12.30;99.90;;;;;;5093119;28;20444;-45
2022/11/13 03:19:13;;;;;;;24.87;20.40;;;12.30;99.90;;;;;;5092960;28;20418;-45
2022/11/13 03:21:59;;;;;;;20.50;18.50;;;11.80;99.90;;;;;;5094473;28;20444;-45
2022/11/13 03:24:44;;;;;;;23.43;19.00;;;12.00;99.90;;;;;;5093937;28;20512;-46
2022/11/13 03:27:31;;;;;;;21.07;19.07;;;12.20;99.90;;;;;;5092989;28;20500;-45
2022/11/13 03:30:16;;;;;;;20.30;18.17;;;11.80;99.90;;;;;;5092671;28;20446;-45
2022/11/13 03:33:03;;;;;;;22.50;20.27;;;11.90;99.90;;;;;;5092956;28;20971;-47
2022/11/13 03:35:48;;;;;;;21.70;19.40;;;11.70;99.90;;;;;;5092846;28;20420;-45
2022/11/13 03:38:35;;;;;;;23.03;20.60;;;12.10;99.90;;;;;;5092407;28;20560;-46
2022/11/13 03:41:21;;;;;;;20.80;18.07;;;11.90;99.90;;;;;;5092201;28;20596;-46
2022/11/13 03:44:06;;;;;;;19.07;17.07;;;12.40;99.90;;;;;;5092240;28;20510;-45
2022/11/13 03:46:52;;;;;;;19.23;17.23;;;11.70;99.90;;;;;;5092655;28;20434;-46
2022/11/13 03:49:38;;;;;;;20.80;16.30;;;11.80;99.90;;;;;;5092864;28;20778;-46
2022/11/13 03:52:23;;;;;;;17.77;15.87;;;12.30;99.90;;;;;;5093404;28;20426;-45
2022/11/13 03:55:09;;;;;;;23.10;16.80;;;12.10;99.90;;;;;;5094131;28;20458;-45
2022/11/13 03:57:54;;;;;;;18.77;16.73;;;12.10;99.90;;;;;;5093086;28;20423;-45
2022/11/13 04:00:41;;;;;;;15.80;14.07;;;11.80;99.90;;;;;;5092091;28;20815;-44
2022/11/13 04:03:26;;;;;;;16.30;14.67;;;11.40;99.90;;;;;;5092212;28;20431;-44
2022/11/13 04:06:14;;;;;;;17.80;16.13;;;12.10;99.90;;;;;;5092278;28;20421;-45
2022/11/13 04:08:59;;;;;;;16.07;14.37;;;11.80;99.90;;;;;;5091931;28;20526;-45
2022/11/13 04:11:44;;;;;;;16.33;14.70;;;11.90;99.90;;;;;;5092253;28;20445;-46
2022/11/13 04:14:30;;;;;;;15.90;14.17;;;12.00;99.90;;;;;;5092228;28;20511;-46
2022/11/13 04:17:15;;;;;;;16.77;14.00;;;12.00;99.90;;;;;;5091888;28;20797;-43
2022/11/13 04:20:01;;;;;;;15.40;12.90;;;12.00;99.90;;;;;;5091939;28;20957;-45
2022/11/13 04:22:48;;;;;;;18.33;14.10;;;12.10;99.90;;;;;;5091931;28;20572;-44
2022/11/13 04:25:33;;;;;;;16.40;13.90;;;11.60;99.90;;;;;;5092084;28;20769;-46
2022/11/13 04:28:18;;;;;;;15.03;13.60;;;11.90;99.90;;;;;;5091816;28;20465;-44
2022/11/13 04:31:04;;;;;;;20.53;13.47;;;11.70;99.90;;;;;;5091968;28;20453;-45
2022/11/13 04:33:49;;;;;;;15.07;13.67;;;11.80;99.90;;;;;;5092185;28;20426;-45
2022/11/13 04:36:35;;;;;;;15.73;14.20;;;11.80;99.90;;;;;;5092435;28;20496;-44
2022/11/13 04:39:21;;;;;;;17.87;16.10;;;11.60;99.90;;;;;;5091765;28;20899;-45
2022/11/13 04:45:11;;;;;;;13.03;11.73;;;12.40;99.90;;;;;;5091486;28;20976;-46
2022/11/13 04:47:57;;;;;;;14.57;13.13;;;11.30;99.90;;;;;;5092083;28;20478;-45
2022/11/13 04:50:42;;;;;;;19.40;13.30;;;11.30;99.90;;;;;;5091445;28;20949;-45
2022/11/13 04:53:27;;;;;;;15.80;13.03;;;12.00;99.90;;;;;;5092794;28;20514;-46
2022/11/13 04:56:14;;;;;;;15.53;13.93;;;11.90;99.90;;;;;;5093379;28;20946;-45
2022/11/13 04:58:59;;;;;;;15.33;13.73;;;11.90;99.90;;;;;;5092538;28;20418;-46
2022/11/13 05:01:44;;;;;;;18.50;14.57;;;11.60;99.90;;;;;;5092469;28;20450;-45
2022/11/13 05:04:30;;;;;;;14.83;13.40;;;11.70;99.90;;;;;;5092637;28;20452;-46
2022/11/13 05:07:15;;;;;;;17.50;15.57;;;11.70;99.90;;;;;;5093205;28;20563;-45
2022/11/13 05:10:00;;;;;;;19.37;14.03;;;11.90;99.90;;;;;;5093173;28;20455;-46
2022/11/13 05:12:46;;;;;;;15.57;14.07;;;11.70;99.90;;;;;;5094282;28;21040;-45
2022/11/13 05:15:32;;;;;;;15.80;13.57;;;11.90;99.90;;;;;;5093189;28;20944;-45
2022/11/13 05:18:17;;;;;;;14.00;12.47;;;12.30;99.90;;;;;;5092060;28;20434;-45
2022/11/13 05:21:02;;;;;;;19.37;14.10;;;11.60;99.90;;;;;;5093358;28;20835;-44
2022/11/13 05:23:47;;;;;;;16.20;14.70;;;11.90;99.90;;;;;;5092539;28;20503;-45
2022/11/13 05:26:33;;;;;;;17.20;15.40;;;11.60;99.90;;;;;;5092126;28;20400;-45
2022/11/13 05:29:20;;;;;;;18.87;16.93;;;11.60;99.90;;;;;;5093816;28;20819;-45
2022/11/13 05:32:05;;;;;;;20.70;18.60;;;12.20;99.90;;;;;;5095295;28;20574;-45
2022/11/13 05:34:50;;;;;;;20.10;18.20;;;12.30;99.90;;;;;;5095285;28;20452;-45
2022/11/13 05:37:36;;;;;;;18.33;16.63;;;11.90;99.90;;;;;;5094757;28;20551;-45
2022/11/13 05:40:21;;;;;;;20.13;17.97;;;11.90;99.90;;;;;;5094592;28;20492;-45
2022/11/13 05:43:07;;;;;;;19.50;17.60;;;11.90;99.90;;;;;;5095267;28;20497;-46
2022/11/13 05:45:59;;;;;;;20.87;18.80;;;11.60;99.90;;;;;;5094864;28;20488;-45
2022/11/13 05:48:47;;;;;;;21.53;19.23;;;12.20;99.90;;;;;;5094466;28;20530;-45
2022/11/13 05:51:33;;;;;;;25.43;21.10;;;11.60;99.90;;;;;;5094925;28;20520;-44
2022/11/13 05:54:19;;;;;;;23.07;20.27;;;11.90;99.90;;;;;;5094431;28;20412;-45
2022/11/13 05:57:04;;;;;;;23.13;20.77;;;11.70;99.90;;;;;;5095049;28;20416;-45
2022/11/13 05:59:50;;;;;;;25.80;23.20;;;11.60;99.90;;;;;;5094893;28;20420;-45
2022/11/13 06:02:36;;;;;;;24.33;21.83;;;11.50;99.90;;;;;;5096272;28;20438;-47
2022/11/13 06:05:22;;;;;;;24.63;22.03;;;11.60;99.90;;;;;;5095397;28;20942;-44
2022/11/13 06:08:07;;;;;;;24.30;21.53;;;11.60;99.90;;;;;;5094423;28;20836;-46
2022/11/13 06:10:53;;;;;;;23.47;21.00;;;11.40;99.90;;;;;;5094253;28;20545;-45
2022/11/13 06:13:39;;;;;;;24.77;22.00;;;11.70;99.90;;;;;;5094331;28;20429;-45
2022/11/13 06:16:26;;;;;;;25.67;23.07;;;12.30;99.90;;;;;;5094791;28;20909;-45
2022/11/13 06:19:13;;;;;;;23.07;20.50;;;11.90;99.90;;;;;;5094036;28;20396;-46
2022/11/13 06:21:59;;;;;;;25.17;20.87;;;11.60;99.90;;;;;;5094120;28;20986;-45
2022/11/13 06:24:44;;;;;;;20.53;18.60;;;11.70;99.90;;;;;;5093750;28;20787;-45
2022/11/13 06:27:29;;;;;;;23.07;20.80;;;11.80;99.90;;;;;;5094265;28;20440;-45
2022/11/13 06:30:15;;;;;;;21.87;19.67;;;12.20;99.90;;;;;;5093923;28;20449;-45
2022/11/13 06:33:00;;;;;;;22.17;19.83;;;11.60;99.90;;;;;;5094084;28;20938;-46
2022/11/13 06:35:47;;;;;;;20.00;17.90;;;12.10;99.90;;;;;;5094107;28;20551;-44
2022/11/13 06:38:33;;;;;;;20.87;17.77;;;12.30;99.90;;;;;;5093869;28;20425;-45
2022/11/13 06:41:21;;;;;;;21.73;19.13;;;12.20;99.90;;;;;;5093284;28;20466;-45
2022/11/13 06:44:06;;;;;;;20.60;18.13;;;12.00;99.90;;;;;;5093864;28;20468;-45
2022/11/13 06:46:52;;;;;;;18.80;16.80;;;11.70;99.90;;;;;;5094345;28;20432;-44
2022/11/13 06:49:37;;;;;;;18.07;15.43;;;11.70;99.90;;;;;;5094848;28;20570;-45
2022/11/13 06:52:24;;;;;;;20.77;16.83;;;11.90;99.90;;;;;;5095128;28;20860;-46
2022/11/13 06:55:09;;;;;;;20.30;17.20;;;12.00;99.90;;;;;;5094619;28;20619;-45
2022/11/13 06:57:55;;;;;;;21.63;17.53;;;11.60;99.90;;;;;;5095558;28;21033;-45
2022/11/13 07:00:41;;;;;;;23.23;19.23;;;11.90;99.90;;;;;;5094422;28;20504;-46
2022/11/13 07:03:27;;;;;;;19.07;16.83;;;12.00;99.90;;;;;;5095513;28;20435;-45
2022/11/13 07:06:14;;;;;;;19.73;17.30;;;11.90;99.90;;;;;;5095153;28;21003;-44
2022/11/13 07:09:01;;;;;;;20.00;17.13;;;11.50;99.90;;;;;;5094075;28;20467;-45
2022/11/13 07:11:46;;;;;;;21.00;18.80;;;11.60;99.90;;;;;;5095608;28;20445;-44
2022/11/13 07:14:31;;;;;;;21.93;19.37;;;12.00;99.90;;;;;;5095224;28;20914;-46
2022/11/13 07:17:16;;;;;;;20.80;18.63;;;11.60;99.90;;;;;;5098106;28;20771;-45
2022/11/13 07:20:02;;;;;;;22.97;17.57;;;11.70;99.90;;;;;;5095170;28;20508;-45
2022/11/13 07:22:47;;;;;;;24.27;18.90;;;11.50;99.90;;;;;;5094647;28;20425;-46
2022/11/13 07:25:35;;;;;;;22.37;19.87;;;11.70;99.90;;;;;;5095416;28;20922;-45
2022/11/13 07:28:20;;;;;;;23.63;19.77;;;11.80;99.90;;;;;;5094719;28;20660;-45
2022/11/13 07:31:07;;;;;;;25.20;20.93;;;11.70;99.90;;;;;;5096611;28;20427;-46
2022/11/13 07:33:52;;;;;;;24.30;20.40;;;11.50;99.90;;;;;;5096978;28;20479;-45
2022/11/13 07:36:37;;;;;;;23.20;20.60;;;11.80;99.90;;;;;;5094752;28;20434;-44
2022/11/13 07:39:23;;;;;;;22.20;19.83;;;11.80;99.90;;;;;;5093710;28;20424;-45
2022/11/13 07:42:09;;;;;;;21.70;19.20;;;12.00;99.90;;;;;;5094533;28;20492;-45
2022/11/13 07:44:55;;;;;;;23.27;20.77;;;12.00;99.90;;;;;;5094263;28;20932;-44
2022/11/13 07:47:41;;;;;;;22.17;19.43;;;11.80;99.90;;;;;;5094498;28;20440;-45
2022/11/13 07:50:27;;;;;;;24.00;21.40;;;12.10;99.90;;;;;;5093723;28;20433;-46
2022/11/13 07:53:12;;;;;;;28.60;22.40;;;11.80;99.90;;;;;;5094269;28;20427;-46
2022/11/13 07:56:00;;;;;;;24.17;20.50;;;12.10;99.90;;;;;;5095376;28;20395;-43
2022/11/13 07:58:47;;;;;;;24.40;20.60;;;11.50;99.90;;;;;;5093469;28;20448;-45
2022/11/13 08:01:32;;;;;;;24.37;21.30;;;12.30;99.90;;;;;;5093968;28;20760;-45
2022/11/13 08:04:17;;;;;;;24.80;22.20;;;11.80;99.90;;;;;;5092982;28;20436;-45
2022/11/13 08:07:02;;;;;;;26.43;20.37;;;11.70;99.90;;;;;;5094005;28;20795;-46
2022/11/13 08:09:48;;;;;;;30.73;21.67;;;12.00;99.90;;;;;;5093233;28;20477;-45
2022/11/13 08:12:33;;;;;;;27.10;20.07;;;12.00;99.90;;;;;;5093720;28;20443;-46
2022/11/13 08:15:20;;;;;;;24.07;21.27;;;12.30;99.90;;;;;;5094128;28;20541;-47
2022/11/13 08:18:06;;;;;;;34.13;23.27;;;12.20;99.90;;;;;;5093652;28;20953;-45
2022/11/13 08:20:51;;;;;;;24.00;20.90;;;12.00;99.90;;;;;;5093657;28;20419;-46
2022/11/13 08:23:36;;;;;;;26.10;20.40;;;12.60;99.90;;;;;;5094545;28;20481;-48
2022/11/13 08:26:22;;;;;;;24.33;20.70;;;12.30;99.90;;;;;;5094064;28;20430;-45
2022/11/13 08:29:08;;;;;;;25.13;21.57;;;11.80;99.90;;;;;;5093961;28;20478;-44
2022/11/13 08:31:55;;;;;;;27.03;20.67;;;11.90;99.90;;;;;;5093536;28;20467;-45
2022/11/13 08:34:39;;;;;;;27.00;21.93;;;12.20;99.90;;;;;;5093578;28;20425;-45
2022/11/13 08:37:25;;;;;;;23.33;19.67;;;12.80;99.90;;;;;;5094995;28;20516;-45
2022/11/13 08:40:11;;;;;;;22.33;17.83;;;12.30;99.90;;;;;;5093442;28;20431;-44
2022/11/13 08:42:59;;;;;;;26.17;19.83;;;12.40;99.90;;;;;;5094244;28;20418;-44
2022/11/13 08:45:45;;;;;;;24.67;20.50;;;12.50;99.90;;;;;;5094800;28;20565;-45
2022/11/13 08:48:31;;;;;;;22.87;19.80;;;12.30;99.90;;;;;;5094516;28;20918;-45
2022/11/13 08:51:17;;;;;;;27.63;20.13;;;12.20;99.90;;;;;;5091596;28;20442;-45
2022/11/13 08:54:02;;;;;;;24.20;19.93;;;11.90;99.90;;;;;;5092205;28;20518;-45
2022/11/13 08:56:48;;;;;;;28.80;21.10;;;12.50;99.90;;;;;;5091893;28;20523;-45
2022/11/13 08:59:33;;;;;;;23.27;20.77;;;12.30;99.90;;;;;;5091704;28;20563;-44
2022/11/13 09:02:18;;;;;;;28.47;20.43;;;12.10;99.90;;;;;;5091985;28;20448;-45
2022/11/13 09:05:06;;;;;;;25.30;21.10;;;12.70;99.90;;;;;;5095637;28;20419;-44
2022/11/13 09:07:55;;;;;;;24.60;19.80;;;12.20;99.90;;;;;;5096029;28;20427;-46
2022/11/13 09:10:40;;;;;;;30.07;22.20;;;12.80;99.90;;;;;;5095420;28;20531;-46
2022/11/13 09:13:25;;;;;;;27.13;20.73;;;12.70;99.90;;;;;;5095738;28;20430;-45
2022/11/13 09:16:11;;;;;;;26.30;20.23;;;12.30;99.90;;;;;;5095516;28;20479;-44
2022/11/13 09:18:56;;;;;;;22.80;19.63;;;12.20;99.90;;;;;;5095903;28;20475;-44
2022/11/13 09:21:42;;;;;;;26.33;22.00;;;12.60;99.90;;;;;;5095916;28;20783;-45
2022/11/13 09:24:28;;;;;;;31.13;21.37;;;12.10;99.90;;;;;;5096414;28;20446;-46
2022/11/13 09:27:13;;;;;;;25.90;21.00;;;12.20;99.90;;;;;;5096803;28;20434;-45
2022/11/13 09:29:58;;;;;;;24.93;21.07;;;12.80;99.90;;;;;;5095017;28;20628;-46
2022/11/13 09:32:43;;;;;;;30.03;24.40;;;12.20;99.90;;;;;;5095585;28;20961;-45
2022/11/13 09:35:36;;;;;;;23.40;20.47;;;12.50;99.90;;;;;;5095323;28;20755;-46
2022/11/13 09:38:23;;;;;;;26.53;23.17;;;12.30;99.90;;;;;;5095603;28;20418;-47
2022/11/13 09:41:11;;;;;;;25.70;21.93;;;12.50;99.90;;;;;;5095307;28;20470;-47
2022/11/13 09:44:00;;;;;;;24.03;20.77;;;12.50;99.90;;;;;;5095050;28;20484;-46
2022/11/13 09:46:50;;;;;;;22.57;19.57;;;12.10;99.90;;;;;;5095700;28;20431;-45
2022/11/13 09:49:41;;;;;;;21.60;19.30;;;12.50;99.90;;;;;;5094373;28;20871;-45
2022/11/13 09:52:32;;;;;;;23.50;19.10;;;12.50;99.90;;;;;;5097014;28;20423;-46
2022/11/13 09:55:21;;;;;;;23.07;18.30;;;12.90;99.90;;;;;;5095472;28;20405;-45
2022/11/13 09:58:15;;;;;;;19.60;17.60;;;13.00;99.90;;;;;;5095632;28;20429;-45
2022/11/13 10:01:01;;;;;;;23.23;20.73;;;12.30;99.90;;;;;;5095688;28;20441;-45
2022/11/13 10:03:53;;;;;;;23.70;20.10;;;12.30;99.90;;;;;;5095859;28;20446;-45
2022/11/13 10:07:04;;;;;;;23.17;19.03;;;12.70;99.90;;;;;;5096692;28;20852;-45
2022/11/13 10:10:05;;;;;;;20.00;17.70;;;12.50;99.90;;;;;;5096627;28;21000;-44
2022/11/13 10:12:56;;;;;;;20.23;18.03;;;12.50;99.90;;;;;;5096849;28;20777;-45
2022/11/13 10:15:44;;;;;;;20.77;17.30;;;12.50;99.90;;;;;;5094742;28;20399;-46
2022/11/13 10:18:34;;;;;;;20.00;16.47;;;12.80;99.90;;;;;;5095314;28;20429;-45
2022/11/13 10:21:29;;;;;;;18.07;16.20;;;12.70;99.90;;;;;;5095400;28;20522;-47
2022/11/13 10:24:17;;;;;;;23.27;18.43;;;12.90;99.90;;;;;;5095229;28;20433;-46
2022/11/13 10:27:08;;;;;;;21.83;19.03;;;12.50;99.90;;;;;;5094928;28;20442;-44
2022/11/13 10:29:54;;;;;;;21.90;16.93;;;12.40;99.90;;;;;;5094172;28;20487;-44
2022/11/13 10:32:40;;;;;;;18.80;16.80;;;12.80;99.90;;;;;;5094073;28;20563;-45
2022/11/13 10:35:43;;;;;;;18.93;16.93;;;12.80;99.90;;;;;;5094341;28;20428;-45
2022/11/13 10:38:34;;;;;;;20.70;18.50;;;13.10;99.90;;;;;;5094644;28;20426;-44
2022/11/13 10:41:21;;;;;;;18.87;17.17;;;12.80;99.90;;;;;;5094897;28;20897;-48
2022/11/13 10:44:20;;;;;;;19.63;17.23;;;12.80;99.90;;;;;;5093407;28;20459;-48
2022/11/13 10:47:15;;;;;;;21.93;17.00;;;12.70;99.90;;;;;;5093454;28;20423;-49
2022/11/13 10:50:09;;;;;;;21.00;19.00;;;12.70;99.90;;;;;;5092619;28;20473;-49
2022/11/13 10:52:57;;;;;;;20.20;18.30;;;13.20;99.90;;;;;;5093424;28;20434;-49
2022/11/13 10:55:43;;;;;;;20.60;18.27;;;13.10;99.90;;;;;;5093560;28;20434;-49
2022/11/13 10:58:29;;;;;;;18.47;16.50;;;13.00;99.90;;;;;;5092670;28;20424;-48
2022/11/13 11:01:15;;;;;;;19.97;17.83;;;13.40;99.90;;;;;;5092769;28;20445;-49
2022/11/13 11:04:03;;;;;;;20.97;15.53;;;13.00;99.90;;;;;;5093061;28;20430;-49
2022/11/13 11:06:49;;;;;;;18.77;16.83;;;12.90;99.90;;;;;;5092830;28;20427;-48
2022/11/13 11:09:38;;;;;;;19.23;17.13;;;13.60;99.90;;;;;;5092255;28;20572;-49
2022/11/13 11:12:25;;;;;;;17.90;16.00;;;13.20;99.90;;;;;;5093602;28;20539;-49
2022/11/13 11:15:21;;;;;;;18.50;15.13;;;13.00;99.90;;;;;;5092859;28;20434;-49
2022/11/13 11:18:19;;;;;;;17.40;15.60;;;13.50;99.90;;;;;;5092659;28;20930;-49
2022/11/13 11:21:10;;;;;;;18.53;15.43;;;12.60;99.90;;;;;;5092767;28;20439;-49
2022/11/13 11:24:00;;;;;;;19.67;15.20;;;12.70;99.90;;;;;;5092895;28;20431;-47
2022/11/13 11:26:52;;;;;;;17.07;15.37;;;13.10;99.90;;;;;;5092459;28;20440;-48
2022/11/13 11:29:44;;;;;;;19.37;15.73;;;13.10;99.90;;;;;;5092228;28;20463;-48
2022/11/13 11:32:34;;;;;;;18.70;16.63;;;13.00;99.90;;;;;;5091701;28;20926;-48
2022/11/13 11:35:24;;;;;;;18.17;15.43;;;13.10;99.90;;;;;;5092655;28;20429;-48
2022/11/13 11:38:19;;;;;;;16.80;15.30;;;13.00;99.90;;;;;;5092787;28;20423;-48
2022/11/13 11:41:10;;;;;;;17.30;15.50;;;13.20;99.90;;;;;;5092229;28;20782;-48
2022/11/13 11:44:02;;;;;;;17.77;15.50;;;13.00;99.90;;;;;;5092450;28;20844;-47
2022/11/13 11:46:47;;;;;;;18.70;13.53;;;13.10;99.90;;;;;;5092629;28;20939;-49
2022/11/13 11:49:33;;;;;;;19.37;13.90;;;13.40;99.90;;;;;;5091798;28;20597;-49
2022/11/13 11:52:31;;;;;;;15.00;13.40;;;12.90;99.90;;;;;;5092121;28;20469;-49
2022/11/13 11:55:40;;;;;;;20.43;14.87;;;13.10;99.90;;;;;;5092251;28;20426;-48
2022/11/13 11:58:51;;;;;;;18.80;14.57;;;13.00;99.90;;;;;;5092222;28;21065;-47
2022/11/13 12:01:57;;;;;;;20.03;15.17;;;13.20;99.90;;;;;;5092072;28;20457;-48
2022/11/13 12:04:59;;;;;;;16.97;15.17;;;12.90;99.90;;;;;;5092261;28;20509;-48
2022/11/13 12:07:55;;;;;;;18.10;15.17;;;12.70;99.90;;;;;;5092248;28;20840;-48
2022/11/13 12:10:49;;;;;;;21.33;17.00;;;12.80;99.90;;;;;;5090833;28;20547;-48
2022/11/13 12:13:43;;;;;;;17.07;14.57;;;12.70;99.90;;;;;;5092029;28;20420;-49
2022/11/13 12:16:35;;;;;;;15.27;13.13;;;12.50;99.90;;;;;;5092694;28;20425;-48
2022/11/13 12:19:29;;;;;;;20.20;15.63;;;13.30;99.90;;;;;;5091680;28;20494;-48
2022/11/13 12:22:23;;;;;;;21.13;15.30;;;13.00;99.90;;;;;;5091823;28;20981;-49
2022/11/13 12:25:17;;;;;;;19.13;16.47;;;12.90;99.90;;;;;;5092155;28;20437;-48
2022/11/13 12:28:12;;;;;;;17.53;15.77;;;13.10;99.90;;;;;;5091885;28;20427;-48
2022/11/13 12:31:17;;;;;;;18.80;16.63;;;13.20;99.90;;;;;;5092013;28;20460;-48
2022/11/13 12:34:10;;;;;;;19.37;16.20;;;13.20;99.90;;;;;;5092612;28;20495;-49
2022/11/13 12:36:58;;;;;;;20.83;18.83;;;12.30;99.90;;;;;;5092736;28;20546;-49
2022/11/13 12:39:48;;;;;;;20.07;16.93;;;12.50;99.90;;;;;;5097198;28;20421;-48
2022/11/13 12:42:37;;;;;;;18.27;16.37;;;12.80;99.90;;;;;;5098581;28;20954;-49
2022/11/13 12:45:40;;;;;;;19.60;16.70;;;13.10;99.90;;;;;;5098869;28;20423;-49
2022/11/13 12:48:31;;;;;;;24.00;17.70;;;12.80;99.90;;;;;;5098082;28;20427;-47
2022/11/13 12:51:19;;;;;;;19.80;17.20;;;13.00;99.90;;;;;;5098332;28;20960;-49
2022/11/13 12:54:05;;;;;;;20.60;16.77;;;12.50;99.90;;;;;;5098174;28;20421;-49
2022/11/13 12:56:50;;;;;;;19.30;16.87;;;13.10;99.90;;;;;;5098851;28;20437;-48
2022/11/13 12:59:39;;;;;;;22.77;17.97;;;12.50;99.90;;;;;;5097592;28;20472;-48
2022/11/13 13:02:46;;;;;;;19.87;17.73;;;12.60;99.90;;;;;;5098312;28;20452;-48
2022/11/13 13:05:53;;;;;;;18.80;16.80;;;12.90;99.90;;;;;;5097960;28;20955;-48
2022/11/13 13:08:53;;;;;;;23.07;19.00;;;12.50;99.90;;;;;;5096975;28;20434;-48
2022/11/13 13:11:47;;;;;;;18.80;16.80;;;12.60;99.90;;;;;;5097645;28;20629;-47
2022/11/13 13:14:50;;;;;;;17.80;15.90;;;12.30;99.90;;;;;;5098231;28;20419;-48
2022/11/13 13:17:35;;;;;;;19.97;17.67;;;12.80;99.90;;;;;;5098128;28;20450;-49
2022/11/13 13:20:33;;;;;;;18.43;15.93;;;12.60;99.90;;;;;;5097549;28;20444;-48
2022/11/13 13:23:28;;;;;;;19.30;17.10;;;12.30;99.90;;;;;;5098021;28;20488;-49
2022/11/13 13:26:18;;;;;;;19.73;17.40;;;12.50;99.90;;;;;;5097773;28;20438;-49
2022/11/13 13:29:16;;;;;;;23.53;18.97;;;12.40;99.90;;;;;;5097463;28;20550;-49
2022/11/13 13:32:11;;;;;;;17.50;15.70;;;12.10;99.90;;;;;;5097493;28;20477;-49
2022/11/13 13:35:05;;;;;;;21.70;18.07;;;12.50;99.90;;;;;;5097584;28;20430;-48
2022/11/13 13:37:57;;;;;;;17.50;15.60;;;12.40;99.90;;;;;;5097784;28;20658;-49
2022/11/13 13:40:54;;;;;;;19.93;15.50;;;12.20;99.90;;;;;;5097549;28;20479;-47
2022/11/13 13:43:53;;;;;;;16.67;14.90;;;12.30;99.90;;;;;;5098082;28;20427;-49
2022/11/13 13:46:39;;;;;;;22.27;19.77;;;12.60;99.90;;;;;;5097713;28;20439;-48
2022/11/13 13:49:27;;;;;;;18.40;15.07;;;12.80;99.90;;;;;;5097139;28;20566;-49
2022/11/13 13:52:15;;;;;;;19.10;14.50;;;12.40;99.90;;;;;;5094946;28;20787;-49
2022/11/13 13:55:04;;;;;;;23.20;15.83;;;12.40;99.90;;;;;;5094448;28;20423;-47
2022/11/13 13:57:49;;;;;;;19.30;15.30;;;12.00;99.90;;;;;;5093895;28;20414;-48
2022/11/13 14:00:35;;;;;;;17.70;15.80;;;12.20;99.90;;;;;;5093766;28;20441;-49
2022/11/13 14:03:23;;;;;;;20.50;17.00;;;12.30;99.90;;;;;;5094313;28;20420;-48
2022/11/13 14:06:16;;;;;;;16.97;15.17;;;12.60;99.90;;;;;;5094478;28;20907;-48
2022/11/13 14:09:09;;;;;;;17.27;15.57;;;12.20;99.90;;;;;;5094051;28;20424;-49
2022/11/13 14:12:01;;;;;;;22.60;16.93;;;12.00;99.90;;;;;;5093480;28;20482;-48
2022/11/13 14:14:46;;;;;;;18.60;15.83;;;12.30;99.90;;;;;;5094162;28;20524;-48
2022/11/13 14:17:33;;;;;;;21.17;15.60;;;11.60;99.90;;;;;;5093803;28;20535;-48